West Chester, Iowa
Current Conditions -  °F | °C
As of 8:55 PM on Friday 21 Nov 2014 (Local Time) from KAWG Reporting Station
Overcast Overcast  
Wind Chill: -3°   Ceiling: 1900
Heat Index:   Visibility: 10mi
Dew Point: -5°   Wind: 14mph
Humidity: 60%   Direction: 160°SSE
Pressure: 30.12"   Gusts: NA
Location:  41.34°N, 91.82°W
Report Text: KAWG 220255Z AUTO 16012KT 10SM OVC019 02/M05 A3012 RMK AO2
Loading
Personal Weather Stations






























Interactive Weather Map New forecast layout! Learn more

10-Day Weather Forecast

Advertisements
Track Severe Weather on mobile